sensor_id;sensor_type;location;lat;lon;timestamp;P1;durP1;ratioP1;P2;durP2;ratioP2
55150;SDS011;41041;43.162;20.538;2023-10-13T00:04:18;10.10;;;4.22;;
55150;SDS011;41041;43.162;20.538;2023-10-13T00:06:49;7.75;;;3.70;;
55150;SDS011;41041;43.162;20.538;2023-10-13T00:09:25;9.50;;;3.97;;
55150;SDS011;41041;43.162;20.538;2023-10-13T00:15:21;10.75;;;4.10;;
55150;SDS011;41041;43.162;20.538;2023-10-13T00:17:53;9.73;;;4.13;;
55150;SDS011;41041;43.162;20.538;2023-10-13T00:20:21;9.90;;;3.85;;
55150;SDS011;41041;43.162;20.538;2023-10-13T00:26:13;8.73;;;4.28;;
55150;SDS011;41041;43.162;20.538;2023-10-13T00:28:43;16.75;;;5.47;;
55150;SDS011;41041;43.162;20.538;2023-10-13T00:31:12;10.25;;;4.63;;
55150;SDS011;41041;43.162;20.538;2023-10-13T00:36:43;9.02;;;4.63;;
55150;SDS011;41041;43.162;20.538;2023-10-13T00:39:14;8.32;;;5.15;;
55150;SDS011;41041;43.162;20.538;2023-10-13T00:41:41;9.65;;;4.80;;
55150;SDS011;41041;43.162;20.538;2023-10-13T00:44:30;8.52;;;4.68;;
55150;SDS011;41041;43.162;20.538;2023-10-13T00:47:13;12.68;;;4.78;;
55150;SDS011;41041;43.162;20.538;2023-10-13T00:49:43;10.38;;;5.07;;
55150;SDS011;41041;43.162;20.538;2023-10-13T00:52:12;14.07;;;5.45;;
55150;SDS011;41041;43.162;20.538;2023-10-13T00:54:41;9.70;;;5.80;;
55150;SDS011;41041;43.162;20.538;2023-10-13T00:57:12;11.95;;;6.50;;
55150;SDS011;41041;43.162;20.538;2023-10-13T00:59:51;12.05;;;6.32;;
55150;SDS011;41041;43.162;20.538;2023-10-13T01:02:19;10.95;;;6.50;;
55150;SDS011;41041;43.162;20.538;2023-10-13T01:08:33;7.93;;;4.50;;
55150;SDS011;41041;43.162;20.538;2023-10-13T01:11:03;10.15;;;4.93;;
55150;SDS011;41041;43.162;20.538;2023-10-13T01:13:32;11.55;;;4.65;;
55150;SDS011;41041;43.162;20.538;2023-10-13T01:16:01;7.68;;;4.30;;
55150;SDS011;41041;43.162;20.538;2023-10-13T01:18:32;10.07;;;4.70;;
55150;SDS011;41041;43.162;20.538;2023-10-13T01:21:22;11.27;;;4.55;;
55150;SDS011;41041;43.162;20.538;2023-10-13T01:23:52;9.60;;;4.38;;
55150;SDS011;41041;43.162;20.538;2023-10-13T01:26:18;12.90;;;4.45;;
55150;SDS011;41041;43.162;20.538;2023-10-13T01:29:09;8.38;;;3.90;;
55150;SDS011;41041;43.162;20.538;2023-10-13T01:31:39;10.43;;;4.72;;
55150;SDS011;41041;43.162;20.538;2023-10-13T01:37:11;8.88;;;3.67;;
55150;SDS011;41041;43.162;20.538;2023-10-13T01:39:36;7.07;;;3.40;;
55150;SDS011;41041;43.162;20.538;2023-10-13T01:42:02;9.02;;;4.20;;
55150;SDS011;41041;43.162;20.538;2023-10-13T01:44:31;10.52;;;4.30;;
55150;SDS011;41041;43.162;20.538;2023-10-13T01:46:58;10.32;;;4.35;;
55150;SDS011;41041;43.162;20.538;2023-10-13T01:49:24;9.77;;;4.13;;
55150;SDS011;41041;43.162;20.538;2023-10-13T01:51:51;10.40;;;4.40;;
55150;SDS011;41041;43.162;20.538;2023-10-13T01:54:17;8.05;;;3.63;;
55150;SDS011;41041;43.162;20.538;2023-10-13T01:56:43;9.60;;;3.90;;
55150;SDS011;41041;43.162;20.538;2023-10-13T01:59:12;7.97;;;3.72;;
55150;SDS011;41041;43.162;20.538;2023-10-13T02:01:39;11.15;;;4.85;;
55150;SDS011;41041;43.162;20.538;2023-10-13T02:04:07;12.88;;;4.85;;
55150;SDS011;41041;43.162;20.538;2023-10-13T02:06:35;7.10;;;4.32;;
55150;SDS011;41041;43.162;20.538;2023-10-13T02:09:03;9.27;;;4.25;;
55150;SDS011;41041;43.162;20.538;2023-10-13T02:14:42;11.50;;;4.60;;
55150;SDS011;41041;43.162;20.538;2023-10-13T02:17:09;8.75;;;4.30;;
55150;SDS011;41041;43.162;20.538;2023-10-13T02:19:41;11.32;;;4.55;;
55150;SDS011;41041;43.162;20.538;2023-10-13T02:34:43;9.15;;;4.53;;
55150;SDS011;41041;43.162;20.538;2023-10-13T02:53:01;8.82;;;4.07;;
55150;SDS011;41041;43.162;20.538;2023-10-13T03:04:24;8.93;;;4.05;;
55150;SDS011;41041;43.162;20.538;2023-10-13T03:06:51;10.15;;;3.90;;
55150;SDS011;41041;43.162;20.538;2023-10-13T03:09:17;10.52;;;4.30;;
55150;SDS011;41041;43.162;20.538;2023-10-13T03:11:44;10.10;;;4.20;;
55150;SDS011;41041;43.162;20.538;2023-10-13T03:14:17;9.27;;;3.83;;
55150;SDS011;41041;43.162;20.538;2023-10-13T03:16:54;10.60;;;4.28;;
55150;SDS011;41041;43.162;20.538;2023-10-13T03:19:20;11.05;;;4.47;;
55150;SDS011;41041;43.162;20.538;2023-10-13T03:21:47;10.13;;;4.90;;
55150;SDS011;41041;43.162;20.538;2023-10-13T03:24:30;11.73;;;4.65;;
55150;SDS011;41041;43.162;20.538;2023-10-13T03:36:48;12.35;;;5.00;;
55150;SDS011;41041;43.162;20.538;2023-10-13T03:43:00;10.45;;;4.53;;
55150;SDS011;41041;43.162;20.538;2023-10-13T03:48:56;9.07;;;4.60;;
55150;SDS011;41041;43.162;20.538;2023-10-13T03:54:29;9.38;;;4.63;;
55150;SDS011;41041;43.162;20.538;2023-10-13T03:56:55;7.35;;;4.05;;
55150;SDS011;41041;43.162;20.538;2023-10-13T03:59:21;9.57;;;3.70;;
55150;SDS011;41041;43.162;20.538;2023-10-13T04:01:48;7.50;;;4.43;;
55150;SDS011;41041;43.162;20.538;2023-10-13T04:08:01;13.32;;;5.00;;
55150;SDS011;41041;43.162;20.538;2023-10-13T04:13:18;12.32;;;5.10;;
55150;SDS011;41041;43.162;20.538;2023-10-13T04:15:47;15.57;;;5.32;;
55150;SDS011;41041;43.162;20.538;2023-10-13T04:21:47;20.60;;;10.55;;
55150;SDS011;41041;43.162;20.538;2023-10-13T04:24:25;27.42;;;16.25;;
55150;SDS011;41041;43.162;20.538;2023-10-13T04:27:03;19.85;;;9.90;;
55150;SDS011;41041;43.162;20.538;2023-10-13T04:29:43;14.73;;;7.72;;
55150;SDS011;41041;43.162;20.538;2023-10-13T04:32:12;18.40;;;6.90;;
55150;SDS011;41041;43.162;20.538;2023-10-13T04:34:53;33.00;;;17.48;;
55150;SDS011;41041;43.162;20.538;2023-10-13T04:37:55;31.65;;;12.75;;
55150;SDS011;41041;43.162;20.538;2023-10-13T04:40:26;19.85;;;9.45;;
55150;SDS011;41041;43.162;20.538;2023-10-13T04:43:05;22.38;;;7.88;;
55150;SDS011;41041;43.162;20.538;2023-10-13T04:45:51;20.45;;;7.05;;
55150;SDS011;41041;43.162;20.538;2023-10-13T04:48:19;23.48;;;7.65;;
55150;SDS011;41041;43.162;20.538;2023-10-13T04:50:48;19.00;;;6.95;;
55150;SDS011;41041;43.162;20.538;2023-10-13T04:53:23;20.70;;;6.63;;
55150;SDS011;41041;43.162;20.538;2023-10-13T04:56:20;10.30;;;4.60;;
55150;SDS011;41041;43.162;20.538;2023-10-13T04:59:20;10.18;;;4.10;;
55150;SDS011;41041;43.162;20.538;2023-10-13T05:02:02;11.98;;;3.85;;
55150;SDS011;41041;43.162;20.538;2023-10-13T05:04:46;9.32;;;4.35;;
55150;SDS011;41041;43.162;20.538;2023-10-13T05:07:42;12.18;;;4.47;;
55150;SDS011;41041;43.162;20.538;2023-10-13T05:10:28;16.33;;;5.38;;
55150;SDS011;41041;43.162;20.538;2023-10-13T05:13:13;15.07;;;6.63;;
55150;SDS011;41041;43.162;20.538;2023-10-13T05:15:57;19.40;;;6.55;;
55150;SDS011;41041;43.162;20.538;2023-10-13T05:18:41;18.83;;;7.10;;
55150;SDS011;41041;43.162;20.538;2023-10-13T05:21:26;25.42;;;8.52;;
55150;SDS011;41041;43.162;20.538;2023-10-13T05:24:11;22.38;;;8.30;;
55150;SDS011;41041;43.162;20.538;2023-10-13T05:26:55;27.23;;;9.10;;
55150;SDS011;41041;43.162;20.538;2023-10-13T05:29:40;20.70;;;8.48;;
55150;SDS011;41041;43.162;20.538;2023-10-13T05:32:26;23.08;;;7.38;;
55150;SDS011;41041;43.162;20.538;2023-10-13T05:35:11;20.63;;;6.55;;
55150;SDS011;41041;43.162;20.538;2023-10-13T05:37:55;21.92;;;6.97;;
55150;SDS011;41041;43.162;20.538;2023-10-13T05:40:50;29.67;;;7.03;;
55150;SDS011;41041;43.162;20.538;2023-10-13T05:43:37;20.88;;;6.28;;
55150;SDS011;41041;43.162;20.538;2023-10-13T05:46:21;31.65;;;8.00;;
55150;SDS011;41041;43.162;20.538;2023-10-13T05:48:50;41.42;;;9.63;;
55150;SDS011;41041;43.162;20.538;2023-10-13T05:51:28;30.70;;;8.73;;
55150;SDS011;41041;43.162;20.538;2023-10-13T05:54:01;17.23;;;5.72;;
55150;SDS011;41041;43.162;20.538;2023-10-13T05:56:43;15.85;;;4.90;;
55150;SDS011;41041;43.162;20.538;2023-10-13T05:59:29;11.43;;;5.40;;
55150;SDS011;41041;43.162;20.538;2023-10-13T06:02:15;18.83;;;5.57;;
55150;SDS011;41041;43.162;20.538;2023-10-13T06:05:03;22.92;;;5.00;;
55150;SDS011;41041;43.162;20.538;2023-10-13T06:07:49;17.67;;;5.68;;
55150;SDS011;41041;43.162;20.538;2023-10-13T06:10:34;15.77;;;6.30;;
55150;SDS011;41041;43.162;20.538;2023-10-13T06:13:18;30.23;;;8.45;;
55150;SDS011;41041;43.162;20.538;2023-10-13T06:16:08;37.83;;;10.68;;
55150;SDS011;41041;43.162;20.538;2023-10-13T06:18:53;36.67;;;12.63;;
55150;SDS011;41041;43.162;20.538;2023-10-13T06:21:37;33.40;;;11.32;;
55150;SDS011;41041;43.162;20.538;2023-10-13T06:24:22;15.25;;;8.27;;
55150;SDS011;41041;43.162;20.538;2023-10-13T06:27:07;21.23;;;9.43;;
55150;SDS011;41041;43.162;20.538;2023-10-13T06:29:51;15.20;;;7.43;;
55150;SDS011;41041;43.162;20.538;2023-10-13T06:32:20;21.52;;;8.48;;
55150;SDS011;41041;43.162;20.538;2023-10-13T06:34:51;17.52;;;8.32;;
55150;SDS011;41041;43.162;20.538;2023-10-13T06:37:22;15.18;;;8.50;;
55150;SDS011;41041;43.162;20.538;2023-10-13T06:39:56;17.52;;;9.00;;
55150;SDS011;41041;43.162;20.538;2023-10-13T06:42:23;20.20;;;10.80;;
55150;SDS011;41041;43.162;20.538;2023-10-13T06:44:52;33.17;;;13.68;;
55150;SDS011;41041;43.162;20.538;2023-10-13T06:47:20;28.30;;;15.30;;
55150;SDS011;41041;43.162;20.538;2023-10-13T06:49:46;28.33;;;14.43;;
55150;SDS011;41041;43.162;20.538;2023-10-13T06:52:13;25.25;;;11.95;;
55150;SDS011;41041;43.162;20.538;2023-10-13T06:54:41;36.22;;;16.08;;
55150;SDS011;41041;43.162;20.538;2023-10-13T06:57:08;36.58;;;19.13;;
55150;SDS011;41041;43.162;20.538;2023-10-13T06:59:40;54.78;;;17.90;;
55150;SDS011;41041;43.162;20.538;2023-10-13T07:02:06;33.95;;;15.40;;
55150;SDS011;41041;43.162;20.538;2023-10-13T07:04:45;42.20;;;16.55;;
55150;SDS011;41041;43.162;20.538;2023-10-13T07:07:12;49.22;;;20.88;;
55150;SDS011;41041;43.162;20.538;2023-10-13T07:09:40;43.60;;;18.73;;
55150;SDS011;41041;43.162;20.538;2023-10-13T07:12:20;37.15;;;16.00;;
55150;SDS011;41041;43.162;20.538;2023-10-13T07:14:53;44.35;;;17.00;;
55150;SDS011;41041;43.162;20.538;2023-10-13T07:17:29;34.75;;;14.80;;
55150;SDS011;41041;43.162;20.538;2023-10-13T07:19:58;28.73;;;9.93;;
55150;SDS011;41041;43.162;20.538;2023-10-13T07:22:50;22.67;;;9.77;;
55150;SDS011;41041;43.162;20.538;2023-10-13T07:25:28;26.10;;;9.90;;
55150;SDS011;41041;43.162;20.538;2023-10-13T07:28:00;25.02;;;9.48;;
55150;SDS011;41041;43.162;20.538;2023-10-13T07:30:28;24.98;;;7.45;;
55150;SDS011;41041;43.162;20.538;2023-10-13T07:33:04;22.08;;;8.00;;
55150;SDS011;41041;43.162;20.538;2023-10-13T07:35:31;28.55;;;9.10;;
55150;SDS011;41041;43.162;20.538;2023-10-13T07:38:00;29.55;;;8.57;;
55150;SDS011;41041;43.162;20.538;2023-10-13T07:40:27;19.95;;;7.95;;
55150;SDS011;41041;43.162;20.538;2023-10-13T07:43:05;23.38;;;7.32;;
55150;SDS011;41041;43.162;20.538;2023-10-13T07:45:35;26.73;;;8.18;;
55150;SDS011;41041;43.162;20.538;2023-10-13T07:48:05;20.55;;;8.20;;
55150;SDS011;41041;43.162;20.538;2023-10-13T07:53:26;19.30;;;7.20;;
55150;SDS011;41041;43.162;20.538;2023-10-13T07:55:54;16.30;;;5.75;;
55150;SDS011;41041;43.162;20.538;2023-10-13T07:58:22;22.48;;;6.78;;
55150;SDS011;41041;43.162;20.538;2023-10-13T08:00:51;44.80;;;7.53;;
55150;SDS011;41041;43.162;20.538;2023-10-13T08:03:33;29.88;;;7.25;;
55150;SDS011;41041;43.162;20.538;2023-10-13T08:06:09;16.75;;;5.53;;
55150;SDS011;41041;43.162;20.538;2023-10-13T08:08:38;18.63;;;5.30;;
55150;SDS011;41041;43.162;20.538;2023-10-13T08:11:08;20.20;;;6.05;;
55150;SDS011;41041;43.162;20.538;2023-10-13T08:13:54;11.43;;;5.07;;
55150;SDS011;41041;43.162;20.538;2023-10-13T08:16:25;10.55;;;4.95;;
55150;SDS011;41041;43.162;20.538;2023-10-13T08:19:12;13.60;;;4.60;;
55150;SDS011;41041;43.162;20.538;2023-10-13T08:21:43;13.63;;;4.90;;
55150;SDS011;41041;43.162;20.538;2023-10-13T08:24:48;17.33;;;5.03;;
55150;SDS011;41041;43.162;20.538;2023-10-13T08:27:16;29.55;;;6.50;;
55150;SDS011;41041;43.162;20.538;2023-10-13T08:30:13;22.27;;;6.40;;
55150;SDS011;41041;43.162;20.538;2023-10-13T08:32:54;31.30;;;7.57;;
55150;SDS011;41041;43.162;20.538;2023-10-13T08:35:24;27.95;;;7.97;;
55150;SDS011;41041;43.162;20.538;2023-10-13T08:38:01;21.52;;;7.43;;
55150;SDS011;41041;43.162;20.538;2023-10-13T08:40:39;24.40;;;7.75;;
55150;SDS011;41041;43.162;20.538;2023-10-13T08:43:24;23.63;;;7.32;;
55150;SDS011;41041;43.162;20.538;2023-10-13T08:46:08;28.15;;;7.88;;
55150;SDS011;41041;43.162;20.538;2023-10-13T08:48:40;18.98;;;6.88;;
55150;SDS011;41041;43.162;20.538;2023-10-13T08:51:10;17.27;;;6.28;;
55150;SDS011;41041;43.162;20.538;2023-10-13T08:53:56;17.17;;;5.40;;
55150;SDS011;41041;43.162;20.538;2023-10-13T08:56:33;21.23;;;6.70;;
55150;SDS011;41041;43.162;20.538;2023-10-13T08:59:00;17.48;;;5.65;;
55150;SDS011;41041;43.162;20.538;2023-10-13T09:04:24;10.52;;;3.75;;
55150;SDS011;41041;43.162;20.538;2023-10-13T09:07:00;13.30;;;4.00;;
55150;SDS011;41041;43.162;20.538;2023-10-13T09:12:23;18.27;;;5.20;;
55150;SDS011;41041;43.162;20.538;2023-10-13T09:15:14;12.73;;;4.72;;
55150;SDS011;41041;43.162;20.538;2023-10-13T09:17:40;11.85;;;4.60;;
55150;SDS011;41041;43.162;20.538;2023-10-13T09:20:13;10.88;;;4.80;;
55150;SDS011;41041;43.162;20.538;2023-10-13T09:22:48;13.07;;;4.10;;
55150;SDS011;41041;43.162;20.538;2023-10-13T09:25:38;13.55;;;3.38;;
55150;SDS011;41041;43.162;20.538;2023-10-13T09:28:19;13.38;;;3.65;;
55150;SDS011;41041;43.162;20.538;2023-10-13T09:30:53;10.68;;;3.88;;
55150;SDS011;41041;43.162;20.538;2023-10-13T09:33:27;15.23;;;4.13;;
55150;SDS011;41041;43.162;20.538;2023-10-13T09:36:12;12.57;;;4.47;;
55150;SDS011;41041;43.162;20.538;2023-10-13T09:38:42;11.52;;;3.67;;
55150;SDS011;41041;43.162;20.538;2023-10-13T09:41:28;18.33;;;4.43;;
55150;SDS011;41041;43.162;20.538;2023-10-13T09:43:57;16.50;;;4.43;;
55150;SDS011;41041;43.162;20.538;2023-10-13T09:46:23;13.63;;;4.28;;
55150;SDS011;41041;43.162;20.538;2023-10-13T09:49:14;21.20;;;4.97;;
55150;SDS011;41041;43.162;20.538;2023-10-13T09:51:58;16.75;;;4.47;;
55150;SDS011;41041;43.162;20.538;2023-10-13T09:54:36;14.90;;;3.60;;
55150;SDS011;41041;43.162;20.538;2023-10-13T09:57:16;22.40;;;4.20;;
55150;SDS011;41041;43.162;20.538;2023-10-13T10:02:17;10.45;;;3.17;;
55150;SDS011;41041;43.162;20.538;2023-10-13T10:04:53;11.63;;;2.83;;
55150;SDS011;41041;43.162;20.538;2023-10-13T10:07:37;23.27;;;4.40;;
55150;SDS011;41041;43.162;20.538;2023-10-13T10:10:05;21.02;;;4.53;;
55150;SDS011;41041;43.162;20.538;2023-10-13T10:15:36;18.65;;;3.45;;
55150;SDS011;41041;43.162;20.538;2023-10-13T10:18:18;14.00;;;3.35;;
55150;SDS011;41041;43.162;20.538;2023-10-13T10:20:47;12.45;;;3.08;;
55150;SDS011;41041;43.162;20.538;2023-10-13T10:26:09;10.48;;;3.00;;
55150;SDS011;41041;43.162;20.538;2023-10-13T10:28:56;10.80;;;3.30;;
55150;SDS011;41041;43.162;20.538;2023-10-13T10:31:31;9.57;;;2.80;;
55150;SDS011;41041;43.162;20.538;2023-10-13T10:34:12;10.35;;;3.00;;
55150;SDS011;41041;43.162;20.538;2023-10-13T10:36:39;11.88;;;2.65;;
55150;SDS011;41041;43.162;20.538;2023-10-13T10:39:08;17.15;;;2.83;;
55150;SDS011;41041;43.162;20.538;2023-10-13T10:41:36;14.30;;;3.15;;
55150;SDS011;41041;43.162;20.538;2023-10-13T10:44:11;11.40;;;3.05;;
55150;SDS011;41041;43.162;20.538;2023-10-13T10:46:56;10.82;;;2.60;;
55150;SDS011;41041;43.162;20.538;2023-10-13T10:49:23;11.25;;;2.55;;
55150;SDS011;41041;43.162;20.538;2023-10-13T10:52:01;13.88;;;3.00;;
55150;SDS011;41041;43.162;20.538;2023-10-13T10:54:30;15.52;;;3.67;;
55150;SDS011;41041;43.162;20.538;2023-10-13T10:57:00;12.48;;;3.10;;
55150;SDS011;41041;43.162;20.538;2023-10-13T10:59:43;11.52;;;3.50;;
55150;SDS011;41041;43.162;20.538;2023-10-13T11:02:10;10.52;;;3.92;;
55150;SDS011;41041;43.162;20.538;2023-10-13T11:04:40;10.80;;;3.50;;
55150;SDS011;41041;43.162;20.538;2023-10-13T11:07:25;14.23;;;3.85;;
55150;SDS011;41041;43.162;20.538;2023-10-13T11:09:52;9.15;;;3.45;;
55150;SDS011;41041;43.162;20.538;2023-10-13T11:12:29;10.48;;;3.55;;
55150;SDS011;41041;43.162;20.538;2023-10-13T11:15:03;10.93;;;3.45;;
55150;SDS011;41041;43.162;20.538;2023-10-13T11:17:48;11.45;;;3.63;;
55150;SDS011;41041;43.162;20.538;2023-10-13T11:20:23;10.07;;;3.25;;
55150;SDS011;41041;43.162;20.538;2023-10-13T11:22:58;15.88;;;4.28;;
55150;SDS011;41041;43.162;20.538;2023-10-13T11:25:29;12.52;;;3.47;;
55150;SDS011;41041;43.162;20.538;2023-10-13T11:31:03;10.75;;;3.42;;
55150;SDS011;41041;43.162;20.538;2023-10-13T11:36:11;9.93;;;3.40;;
55150;SDS011;41041;43.162;20.538;2023-10-13T11:38:47;16.77;;;3.85;;
55150;SDS011;41041;43.162;20.538;2023-10-13T11:41:13;17.65;;;3.63;;
55150;SDS011;41041;43.162;20.538;2023-10-13T11:43:47;9.85;;;2.85;;
55150;SDS011;41041;43.162;20.538;2023-10-13T11:49:01;9.88;;;2.97;;
55150;SDS011;41041;43.162;20.538;2023-10-13T11:51:42;11.02;;;3.88;;
55150;SDS011;41041;43.162;20.538;2023-10-13T11:56:46;11.50;;;3.40;;
55150;SDS011;41041;43.162;20.538;2023-10-13T11:59:13;9.77;;;3.38;;
55150;SDS011;41041;43.162;20.538;2023-10-13T12:01:49;8.77;;;3.10;;
55150;SDS011;41041;43.162;20.538;2023-10-13T12:07:09;12.40;;;3.97;;
55150;SDS011;41041;43.162;20.538;2023-10-13T12:12:58;8.43;;;3.30;;
55150;SDS011;41041;43.162;20.538;2023-10-13T12:15:31;12.00;;;3.60;;
55150;SDS011;41041;43.162;20.538;2023-10-13T12:18:13;11.90;;;3.35;;
55150;SDS011;41041;43.162;20.538;2023-10-13T12:20:40;19.02;;;4.13;;
55150;SDS011;41041;43.162;20.538;2023-10-13T12:23:10;12.25;;;3.08;;
55150;SDS011;41041;43.162;20.538;2023-10-13T12:25:46;14.38;;;3.28;;
55150;SDS011;41041;43.162;20.538;2023-10-13T12:28:34;14.00;;;3.30;;
55150;SDS011;41041;43.162;20.538;2023-10-13T12:31:06;11.60;;;2.70;;
55150;SDS011;41041;43.162;20.538;2023-10-13T12:33:33;11.27;;;2.88;;
55150;SDS011;41041;43.162;20.538;2023-10-13T12:36:02;10.98;;;3.05;;
55150;SDS011;41041;43.162;20.538;2023-10-13T12:38:38;10.63;;;3.50;;
55150;SDS011;41041;43.162;20.538;2023-10-13T12:49:44;6.80;;;2.70;;
55150;SDS011;41041;43.162;20.538;2023-10-13T12:52:10;15.15;;;5.43;;
55150;SDS011;41041;43.162;20.538;2023-10-13T12:54:45;12.82;;;3.55;;
55150;SDS011;41041;43.162;20.538;2023-10-13T12:57:24;12.00;;;3.78;;
55150;SDS011;41041;43.162;20.538;2023-10-13T12:59:50;8.60;;;2.70;;
55150;SDS011;41041;43.162;20.538;2023-10-13T13:02:22;18.63;;;6.00;;
55150;SDS011;41041;43.162;20.538;2023-10-13T13:04:53;26.10;;;11.27;;
55150;SDS011;41041;43.162;20.538;2023-10-13T13:07:24;22.35;;;11.18;;
55150;SDS011;41041;43.162;20.538;2023-10-13T13:09:55;10.27;;;3.70;;
55150;SDS011;41041;43.162;20.538;2023-10-13T13:12:29;11.88;;;3.30;;
55150;SDS011;41041;43.162;20.538;2023-10-13T13:14:55;5.57;;;1.73;;
55150;SDS011;41041;43.162;20.538;2023-10-13T13:17:21;5.75;;;1.65;;
55150;SDS011;41041;43.162;20.538;2023-10-13T13:19:47;17.40;;;4.68;;
55150;SDS011;41041;43.162;20.538;2023-10-13T13:22:14;7.13;;;2.28;;
55150;SDS011;41041;43.162;20.538;2023-10-13T13:24:44;6.35;;;1.50;;
55150;SDS011;41041;43.162;20.538;2023-10-13T13:27:13;6.53;;;1.30;;
55150;SDS011;41041;43.162;20.538;2023-10-13T13:29:40;7.15;;;1.63;;
55150;SDS011;41041;43.162;20.538;2023-10-13T13:32:06;5.03;;;1.45;;
55150;SDS011;41041;43.162;20.538;2023-10-13T13:34:43;7.30;;;1.77;;
55150;SDS011;41041;43.162;20.538;2023-10-13T13:37:09;6.28;;;1.70;;
55150;SDS011;41041;43.162;20.538;2023-10-13T13:39:38;6.82;;;1.90;;
55150;SDS011;41041;43.162;20.538;2023-10-13T13:42:10;6.68;;;1.90;;
55150;SDS011;41041;43.162;20.538;2023-10-13T13:44:36;9.57;;;2.30;;
55150;SDS011;41041;43.162;20.538;2023-10-13T13:47:02;13.38;;;4.22;;
55150;SDS011;41041;43.162;20.538;2023-10-13T13:49:37;5.55;;;1.90;;
55150;SDS011;41041;43.162;20.538;2023-10-13T13:52:11;5.07;;;1.50;;
55150;SDS011;41041;43.162;20.538;2023-10-13T13:54:43;6.00;;;2.75;;
55150;SDS011;41041;43.162;20.538;2023-10-13T13:57:09;7.38;;;2.47;;
55150;SDS011;41041;43.162;20.538;2023-10-13T13:59:35;7.10;;;2.00;;
55150;SDS011;41041;43.162;20.538;2023-10-13T14:02:01;5.57;;;1.60;;
55150;SDS011;41041;43.162;20.538;2023-10-13T14:04:45;6.70;;;1.67;;
55150;SDS011;41041;43.162;20.538;2023-10-13T14:07:12;8.23;;;1.80;;
55150;SDS011;41041;43.162;20.538;2023-10-13T14:09:40;5.75;;;1.92;;
55150;SDS011;41041;43.162;20.538;2023-10-13T14:12:09;8.45;;;2.15;;
55150;SDS011;41041;43.162;20.538;2023-10-13T14:14:53;10.27;;;1.80;;
55150;SDS011;41041;43.162;20.538;2023-10-13T14:17:22;7.22;;;1.70;;
55150;SDS011;41041;43.162;20.538;2023-10-13T14:19:55;12.23;;;2.83;;
55150;SDS011;41041;43.162;20.538;2023-10-13T14:22:21;7.38;;;2.80;;
55150;SDS011;41041;43.162;20.538;2023-10-13T14:24:50;9.63;;;3.10;;
55150;SDS011;41041;43.162;20.538;2023-10-13T14:27:19;7.30;;;2.60;;
55150;SDS011;41041;43.162;20.538;2023-10-13T14:29:48;9.07;;;2.60;;
55150;SDS011;41041;43.162;20.538;2023-10-13T14:32:19;10.40;;;2.30;;
55150;SDS011;41041;43.162;20.538;2023-10-13T14:34:49;33.83;;;3.38;;
55150;SDS011;41041;43.162;20.538;2023-10-13T14:37:19;13.75;;;2.17;;
55150;SDS011;41041;43.162;20.538;2023-10-13T14:39:54;12.23;;;2.10;;
55150;SDS011;41041;43.162;20.538;2023-10-13T14:42:25;7.38;;;1.90;;
55150;SDS011;41041;43.162;20.538;2023-10-13T14:44:51;15.80;;;2.70;;
55150;SDS011;41041;43.162;20.538;2023-10-13T14:47:26;22.85;;;3.83;;
55150;SDS011;41041;43.162;20.538;2023-10-13T14:49:52;27.98;;;3.97;;
55150;SDS011;41041;43.162;20.538;2023-10-13T14:52:26;23.70;;;3.80;;
55150;SDS011;41041;43.162;20.538;2023-10-13T14:54:57;13.30;;;2.60;;
55150;SDS011;41041;43.162;20.538;2023-10-13T14:57:23;17.17;;;2.90;;
55150;SDS011;41041;43.162;20.538;2023-10-13T14:59:55;16.58;;;3.00;;
55150;SDS011;41041;43.162;20.538;2023-10-13T15:02:22;10.77;;;2.83;;
55150;SDS011;41041;43.162;20.538;2023-10-13T15:04:48;14.15;;;3.30;;
55150;SDS011;41041;43.162;20.538;2023-10-13T15:07:15;14.18;;;3.97;;
55150;SDS011;41041;43.162;20.538;2023-10-13T15:09:42;12.18;;;3.42;;
55150;SDS011;41041;43.162;20.538;2023-10-13T15:15:01;34.25;;;11.07;;
55150;SDS011;41041;43.162;20.538;2023-10-13T15:17:27;23.58;;;8.57;;
55150;SDS011;41041;43.162;20.538;2023-10-13T15:19:54;20.75;;;7.82;;
55150;SDS011;41041;43.162;20.538;2023-10-13T15:22:20;33.75;;;9.18;;
55150;SDS011;41041;43.162;20.538;2023-10-13T15:24:52;43.75;;;16.20;;
55150;SDS011;41041;43.162;20.538;2023-10-13T15:27:37;69.70;;;23.92;;
55150;SDS011;41041;43.162;20.538;2023-10-13T15:30:07;71.50;;;28.92;;
55150;SDS011;41041;43.162;20.538;2023-10-13T15:32:45;62.35;;;27.02;;
55150;SDS011;41041;43.162;20.538;2023-10-13T15:35:11;69.88;;;21.52;;
55150;SDS011;41041;43.162;20.538;2023-10-13T15:37:41;31.05;;;8.07;;
55150;SDS011;41041;43.162;20.538;2023-10-13T15:43:07;32.25;;;9.90;;
55150;SDS011;41041;43.162;20.538;2023-10-13T15:45:33;29.00;;;10.52;;
55150;SDS011;41041;43.162;20.538;2023-10-13T15:51:26;84.63;;;35.38;;
55150;SDS011;41041;43.162;20.538;2023-10-13T15:53:51;53.17;;;19.65;;
55150;SDS011;41041;43.162;20.538;2023-10-13T15:56:17;21.38;;;9.27;;
55150;SDS011;41041;43.162;20.538;2023-10-13T15:58:47;38.70;;;18.40;;
55150;SDS011;41041;43.162;20.538;2023-10-13T16:01:13;36.85;;;12.57;;
55150;SDS011;41041;43.162;20.538;2023-10-13T16:03:40;38.97;;;15.63;;
55150;SDS011;41041;43.162;20.538;2023-10-13T16:06:12;104.38;;;46.95;;
55150;SDS011;41041;43.162;20.538;2023-10-13T16:08:39;65.97;;;27.73;;
55150;SDS011;41041;43.162;20.538;2023-10-13T16:11:11;53.28;;;16.75;;
55150;SDS011;41041;43.162;20.538;2023-10-13T16:13:44;47.38;;;15.73;;
55150;SDS011;41041;43.162;20.538;2023-10-13T16:16:20;44.00;;;16.42;;
55150;SDS011;41041;43.162;20.538;2023-10-13T16:18:53;45.33;;;15.70;;
55150;SDS011;41041;43.162;20.538;2023-10-13T16:21:23;52.25;;;16.50;;
55150;SDS011;41041;43.162;20.538;2023-10-13T16:23:49;47.93;;;16.87;;
55150;SDS011;41041;43.162;20.538;2023-10-13T16:26:15;44.15;;;14.85;;
55150;SDS011;41041;43.162;20.538;2023-10-13T16:31:19;21.65;;;9.05;;
55150;SDS011;41041;43.162;20.538;2023-10-13T16:33:48;18.88;;;7.50;;
55150;SDS011;41041;43.162;20.538;2023-10-13T16:36:15;39.63;;;9.50;;
55150;SDS011;41041;43.162;20.538;2023-10-13T16:38:41;28.27;;;8.85;;
55150;SDS011;41041;43.162;20.538;2023-10-13T16:41:10;28.17;;;10.00;;
55150;SDS011;41041;43.162;20.538;2023-10-13T16:43:38;35.03;;;13.00;;
55150;SDS011;41041;43.162;20.538;2023-10-13T16:46:05;33.42;;;14.27;;
55150;SDS011;41041;43.162;20.538;2023-10-13T16:48:39;42.90;;;12.82;;
55150;SDS011;41041;43.162;20.538;2023-10-13T16:51:08;34.42;;;14.80;;
55150;SDS011;41041;43.162;20.538;2023-10-13T16:53:40;37.22;;;14.63;;
55150;SDS011;41041;43.162;20.538;2023-10-13T16:56:16;34.45;;;12.45;;
55150;SDS011;41041;43.162;20.538;2023-10-13T16:58:49;36.47;;;15.55;;
55150;SDS011;41041;43.162;20.538;2023-10-13T17:01:19;39.45;;;14.32;;
55150;SDS011;41041;43.162;20.538;2023-10-13T17:03:47;35.90;;;11.00;;
55150;SDS011;41041;43.162;20.538;2023-10-13T17:06:14;30.95;;;11.68;;
55150;SDS011;41041;43.162;20.538;2023-10-13T17:08:41;39.38;;;10.90;;
55150;SDS011;41041;43.162;20.538;2023-10-13T17:11:10;27.02;;;11.27;;
55150;SDS011;41041;43.162;20.538;2023-10-13T17:13:40;40.03;;;12.27;;
55150;SDS011;41041;43.162;20.538;2023-10-13T17:18:42;34.70;;;11.40;;
55150;SDS011;41041;43.162;20.538;2023-10-13T17:21:14;39.47;;;12.50;;
55150;SDS011;41041;43.162;20.538;2023-10-13T17:23:47;31.60;;;11.02;;